X  Close Metar Aviation Weather Data     LBPD Plovdiv International Airport
Temperature
59°F Temperature
54°F Dewpoint
82% Humidity



Wind
7 MPH
11 KM/H
3 M/S
6 KTS



320°
NW
Current Conditions

Partly Cloudy Partly Cloudy
Pressure 1005.08 (hPa) - 29.68 (inHg)
Visibility 6 (mile) - 9.7 (km)
Airport
Airport-code LBPD

Location: Plovdiv International Airport
Distance: 14 (mi)

Metar:
LBPD 240700Z AUTO 32006KT 280V350 9999 FEW016/// 15/12 Q1005 NOSIG

Time: 24-04-2024 10:00 EEST